createdAt,value
2019-05-22T00:01:15.418Z,91.78
2019-05-22T00:03:45.474Z,91.82
2019-05-22T00:06:17.183Z,91.79
2019-05-22T00:08:48.476Z,91.83
2019-05-22T00:11:18.975Z,91.77
2019-05-22T00:13:47.990Z,91.68
2019-05-22T00:16:17.284Z,91.60
2019-05-22T00:18:47.487Z,91.62
2019-05-22T00:21:18.113Z,91.55
2019-05-22T00:23:47.086Z,91.59
2019-05-22T00:26:16.984Z,91.59
2019-05-22T00:28:47.207Z,91.60
2019-05-22T00:31:18.637Z,91.59
2019-05-22T00:33:47.752Z,91.65
2019-05-22T00:36:17.871Z,91.71
2019-05-22T00:38:46.395Z,91.74
2019-05-22T00:41:18.318Z,91.81
2019-05-22T00:43:48.418Z,91.80
2019-05-22T00:46:20.143Z,91.79
2019-05-22T00:48:48.743Z,91.92
2019-05-22T00:51:36.900Z,91.94
2019-05-22T00:54:25.224Z,92.00
2019-05-22T00:56:56.370Z,92.08
2019-05-22T00:59:27.907Z,92.09
2019-05-22T01:01:59.553Z,92.17
2019-05-22T01:04:39.009Z,92.17
2019-05-22T01:07:18.445Z,92.19
2019-05-22T01:09:52.971Z,92.23
2019-05-22T01:12:43.548Z,92.22
2019-05-22T01:15:15.347Z,92.29
2019-05-22T01:17:45.162Z,92.30
2019-05-22T01:20:16.003Z,92.33
2019-05-22T01:22:47.878Z,92.42
2019-05-22T01:25:20.787Z,92.43
2019-05-22T01:27:49.175Z,92.46
2019-05-22T01:30:23.899Z,92.45
2019-05-22T01:32:54.254Z,92.52
2019-05-22T01:35:30.097Z,92.61
2019-05-22T01:37:59.982Z,92.64
2019-05-22T01:40:41.617Z,92.61
2019-05-22T01:43:13.065Z,92.60
2019-05-22T01:45:43.215Z,92.61
2019-05-22T01:48:19.194Z,92.56
2019-05-22T01:50:56.299Z,92.52
2019-05-22T01:53:27.377Z,92.45
2019-05-22T01:55:58.990Z,92.36
2019-05-22T01:58:29.845Z,92.33
2019-05-22T02:01:00.406Z,92.21
2019-05-22T02:03:30.577Z,91.95
2019-05-22T02:06:00.992Z,91.80
2019-05-22T02:08:32.425Z,91.62
2019-05-22T02:11:01.925Z,91.48
2019-05-22T02:13:38.160Z,91.39
2019-05-22T02:16:09.246Z,91.33
2019-05-22T02:18:42.234Z,91.22
2019-05-22T02:21:12.526Z,91.29
2019-05-22T02:23:43.077Z,91.32
2019-05-22T02:26:13.212Z,91.17
2019-05-22T02:28:41.916Z,91.29
2019-05-22T02:31:14.962Z,91.31
2019-05-22T02:34:01.327Z,91.39
2019-05-22T02:36:30.500Z,91.42
2019-05-22T02:39:01.358Z,91.38
2019-05-22T02:41:34.664Z,91.29
2019-05-22T02:44:05.822Z,91.34
2019-05-22T02:46:34.711Z,91.43
2019-05-22T02:49:05.482Z,91.28
2019-05-22T02:51:33.974Z,91.22
2019-05-22T02:54:05.399Z,91.16
2019-05-22T02:56:34.815Z,91.20
2019-05-22T02:59:06.974Z,91.21
2019-05-22T03:01:37.842Z,91.30
2019-05-22T03:04:07.934Z,91.35
2019-05-22T03:06:37.680Z,91.39
2019-05-22T03:09:18.585Z,91.52
2019-05-22T03:11:53.883Z,91.65
2019-05-22T03:14:24.208Z,91.64
2019-05-22T03:16:56.357Z,91.63
2019-05-22T03:19:46.173Z,91.55
2019-05-22T03:22:25.770Z,91.54
2019-05-22T03:24:58.050Z,91.41
2019-05-22T03:27:39.010Z,91.39
2019-05-22T03:30:24.196Z,91.40
2019-05-22T03:32:54.569Z,91.40
2019-05-22T03:35:26.312Z,91.48
2019-05-22T03:37:56.950Z,91.51
2019-05-22T03:40:29.813Z,91.54
2019-05-22T03:42:59.813Z,91.54
2019-05-22T03:45:29.449Z,91.53
2019-05-22T03:47:59.112Z,91.54
2019-05-22T03:50:29.772Z,91.51
2019-05-22T03:53:01.080Z,91.64
2019-05-22T03:55:29.684Z,91.66
2019-05-22T03:57:58.117Z,91.67
2019-05-22T04:00:28.225Z,91.67
2019-05-22T04:02:57.118Z,91.68
2019-05-22T04:05:27.741Z,91.67
2019-05-22T04:07:58.554Z,91.70
2019-05-22T04:10:30.002Z,91.66
2019-05-22T04:12:58.577Z,91.54
2019-05-22T04:15:29.079Z,91.57
2019-05-22T04:18:01.477Z,91.37
2019-05-22T04:20:32.544Z,91.31
2019-05-22T04:23:02.112Z,91.37
2019-05-22T04:25:32.328Z,91.44
2019-05-22T04:28:02.379Z,91.40
2019-05-22T04:30:32.256Z,91.39
2019-05-22T04:33:01.779Z,91.30
2019-05-22T04:35:31.776Z,91.28
2019-05-22T04:38:01.958Z,91.32
2019-05-22T04:40:42.441Z,91.37
2019-05-22T04:43:12.398Z,91.42
2019-05-22T04:45:41.152Z,91.36
2019-05-22T04:48:10.517Z,91.28
2019-05-22T04:50:39.987Z,91.10
2019-05-22T04:53:11.563Z,91.05
2019-05-22T04:55:40.131Z,91.04
2019-05-22T04:58:11.382Z,90.93
2019-05-22T05:00:39.904Z,90.97
2019-05-22T05:03:09.347Z,90.93
2019-05-22T05:05:40.121Z,90.73
2019-05-22T05:08:11.968Z,90.59
2019-05-22T05:10:42.054Z,90.35
2019-05-22T05:13:10.688Z,90.17
2019-05-22T05:15:39.353Z,89.83
2019-05-22T05:18:08.077Z,89.57
2019-05-22T05:20:38.148Z,89.42
2019-05-22T05:23:06.782Z,89.59
2019-05-22T05:25:35.200Z,89.56
2019-05-22T05:28:07.294Z,89.17
2019-05-22T05:30:35.952Z,88.95
2019-05-22T05:33:05.979Z,88.30
2019-05-22T05:35:36.663Z,88.30
2019-05-22T05:38:07.069Z,88.54
2019-05-22T05:40:41.827Z,88.45
2019-05-22T05:43:12.420Z,88.33
2019-05-22T05:45:43.140Z,88.47
2019-05-22T05:48:14.054Z,87.92
2019-05-22T05:51:01.835Z,88.08
2019-05-22T05:53:32.445Z,88.34
2019-05-22T05:56:10.648Z,88.14
2019-05-22T05:58:40.922Z,88.43
2019-05-22T06:01:14.052Z,88.27
2019-05-22T06:03:43.523Z,87.81
2019-05-22T06:06:25.076Z,87.83
2019-05-22T06:09:01.661Z,87.64
2019-05-22T06:11:33.779Z,87.64
2019-05-22T06:14:08.779Z,87.12
2019-05-22T06:16:54.100Z,86.81
2019-05-22T06:19:26.309Z,87.07
2019-05-22T06:21:54.850Z,86.87
2019-05-22T06:24:36.438Z,86.57
2019-05-22T06:27:16.254Z,86.16
2019-05-22T06:30:04.860Z,86.14
2019-05-22T06:32:54.542Z,86.67
2019-05-22T06:35:25.152Z,86.48
2019-05-22T06:38:17.422Z,86.03
2019-05-22T06:40:46.366Z,86.29
2019-05-22T06:43:28.668Z,85.97
2019-05-22T06:45:57.571Z,85.39
2019-05-22T06:48:26.016Z,85.11
2019-05-22T06:50:54.713Z,83.71
2019-05-22T06:53:23.242Z,84.34
2019-05-22T06:55:51.694Z,85.24
2019-05-22T06:58:20.746Z,84.97
2019-05-22T07:00:54.201Z,84.60
2019-05-22T07:03:24.593Z,83.25
2019-05-22T07:05:54.816Z,83.43
2019-05-22T07:08:23.404Z,83.24
2019-05-22T07:10:52.098Z,83.97
2019-05-22T07:13:22.056Z,83.07
2019-05-22T07:15:52.421Z,83.80
2019-05-22T07:18:24.001Z,83.37
2019-05-22T07:20:53.253Z,83.55
2019-05-22T07:23:24.434Z,83.97
2019-05-22T07:25:54.790Z,83.78
2019-05-22T07:28:26.835Z,83.90
2019-05-22T07:30:56.078Z,83.80
2019-05-22T07:33:24.850Z,83.83
2019-05-22T07:36:12.142Z,84.39
2019-05-22T07:38:23.848Z,84.26
2019-05-22T07:40:54.183Z,83.51
2019-05-22T07:43:23.216Z,83.74
2019-05-22T07:45:53.796Z,83.51
2019-05-22T07:48:26.762Z,83.96
2019-05-22T07:50:56.920Z,82.98
2019-05-22T07:53:26.683Z,83.49
2019-05-22T07:55:58.028Z,83.58
2019-05-22T07:58:29.834Z,83.11
2019-05-22T08:01:02.081Z,83.86
2019-05-22T08:03:32.671Z,83.42
2019-05-22T08:06:03.273Z,83.61
2019-05-22T08:08:33.220Z,83.08
2019-05-22T08:11:03.589Z,83.51
2019-05-22T08:13:33.249Z,83.45
2019-05-22T08:16:02.688Z,82.85
2019-05-22T08:18:33.578Z,83.14
2019-05-22T08:21:02.980Z,82.53
2019-05-22T08:23:33.517Z,82.30
2019-05-22T08:26:02.121Z,82.77
2019-05-22T08:28:33.323Z,83.96
2019-05-22T08:31:03.157Z,83.83
2019-05-22T08:33:34.464Z,82.67
2019-05-22T08:36:05.071Z,82.10
2019-05-22T08:38:35.290Z,83.02
2019-05-22T08:41:08.800Z,82.96
2019-05-22T08:44:03.210Z,81.89
2019-05-22T08:46:09.600Z,82.22
2019-05-22T08:48:47.522Z,82.40
2019-05-22T08:51:15.077Z,81.61
2019-05-22T08:53:47.997Z,81.93
2019-05-22T08:56:15.957Z,82.26
2019-05-22T08:58:47.627Z,81.67
2019-05-22T09:01:17.663Z,80.97
2019-05-22T09:03:47.045Z,81.48
2019-05-22T09:06:15.629Z,81.01
2019-05-22T09:08:44.109Z,79.57
2019-05-22T09:11:12.619Z,77.98
2019-05-22T09:13:41.446Z,77.92
2019-05-22T09:16:09.969Z,75.77
2019-05-22T09:18:38.644Z,76.39
2019-05-22T09:21:07.844Z,74.60
2019-05-22T09:23:37.033Z,75.55
2019-05-22T09:26:08.354Z,74.27
2019-05-22T09:28:37.559Z,74.97
2019-05-22T09:31:06.198Z,74.51
2019-05-22T09:33:36.507Z,75.67
2019-05-22T09:36:07.553Z,76.02
2019-05-22T09:38:36.778Z,76.53
2019-05-22T09:41:06.434Z,75.79
2019-05-22T09:43:35.011Z,73.57
2019-05-22T09:46:03.896Z,74.46
2019-05-22T09:48:35.495Z,73.69
2019-05-22T09:51:06.342Z,71.70
2019-05-22T09:53:38.063Z,73.19
2019-05-22T09:56:06.614Z,73.41
2019-05-22T09:58:35.508Z,73.24
2019-05-22T10:01:05.382Z,78.66
2019-05-22T10:03:36.614Z,75.28
2019-05-22T10:06:06.005Z,74.24
2019-05-22T10:08:34.651Z,74.85
2019-05-22T10:11:03.297Z,73.79
2019-05-22T10:13:33.306Z,74.63
2019-05-22T10:16:01.879Z,75.54
2019-05-22T10:18:30.404Z,72.48
2019-05-22T10:20:59.399Z,71.81
2019-05-22T10:23:29.090Z,69.30
2019-05-22T10:25:57.764Z,70.11
2019-05-22T10:28:26.318Z,71.03
2019-05-22T10:30:57.498Z,71.85
2019-05-22T10:33:28.094Z,71.68
2019-05-22T10:35:56.586Z,71.71
2019-05-22T10:38:25.128Z,72.36
2019-05-22T10:40:58.971Z,72.36
2019-05-22T10:43:25.581Z,73.57
2019-05-22T10:45:54.044Z,73.91
2019-05-22T10:48:24.067Z,74.53
2019-05-22T10:50:52.464Z,74.81
2019-05-22T10:53:32.901Z,71.71
2019-05-22T10:55:54.341Z,68.58
2019-05-22T10:58:22.806Z,69.25
2019-05-22T11:00:51.398Z,69.69
2019-05-22T11:03:20.418Z,69.57
2019-05-22T11:06:05.688Z,67.54
2019-05-22T11:08:20.855Z,67.67
2019-05-22T11:10:50.463Z,67.08
2019-05-22T11:13:19.640Z,64.43
2019-05-22T11:15:48.593Z,64.76
2019-05-22T11:18:17.826Z,64.00
2019-05-22T11:20:46.333Z,64.08
2019-05-22T11:23:15.381Z,63.96
2019-05-22T11:25:44.083Z,63.91
2019-05-22T11:28:12.772Z,61.80
2019-05-22T11:30:41.213Z,61.80
2019-05-22T11:33:10.112Z,59.39
2019-05-22T11:35:41.066Z,60.66
2019-05-22T11:38:09.779Z,59.80
2019-05-22T11:40:39.547Z,57.98
2019-05-22T11:43:09.192Z,59.08
2019-05-22T11:45:37.621Z,58.61
2019-05-22T11:48:08.199Z,58.43
2019-05-22T11:50:40.474Z,58.52
2019-05-22T11:53:09.722Z,57.75
2019-05-22T11:55:45.160Z,54.89
2019-05-22T11:58:10.034Z,54.84
2019-05-22T12:00:38.789Z,57.23
2019-05-22T12:03:09.011Z,57.61
2019-05-22T12:05:38.108Z,58.36
2019-05-22T12:08:07.088Z,55.71
2019-05-22T12:10:37.367Z,53.71
2019-05-22T12:13:09.433Z,51.73
2019-05-22T12:15:39.232Z,53.11
2019-05-22T12:18:07.996Z,54.37
2019-05-22T12:20:36.898Z,52.40
2019-05-22T12:23:06.308Z,53.41
2019-05-22T12:25:34.767Z,54.45
2019-05-22T12:28:03.249Z,53.96
2019-05-22T12:30:31.766Z,51.61
2019-05-22T12:33:01.126Z,53.46
2019-05-22T12:35:31.272Z,53.58
2019-05-22T12:38:01.470Z,50.92
2019-05-22T12:40:32.827Z,51.26
2019-05-22T12:43:03.457Z,50.81
2019-05-22T12:45:33.381Z,50.37
2019-05-22T12:48:04.221Z,49.78
2019-05-22T12:50:33.726Z,51.67
2019-05-22T12:53:05.740Z,51.35
2019-05-22T12:55:34.925Z,53.56
2019-05-22T12:58:05.454Z,51.31
2019-05-22T13:00:34.967Z,54.29
2019-05-22T13:03:06.256Z,50.10
2019-05-22T13:05:39.558Z,51.03
2019-05-22T13:08:09.492Z,51.24
2019-05-22T13:10:39.325Z,48.71
2019-05-22T13:13:09.009Z,49.07
2019-05-22T13:15:38.706Z,48.05
2019-05-22T13:18:09.972Z,47.63
2019-05-22T13:20:43.526Z,49.18
2019-05-22T13:23:13.719Z,47.26
2019-05-22T13:25:43.454Z,49.60
2019-05-22T13:28:14.375Z,49.56
2019-05-22T13:30:46.931Z,49.81
2019-05-22T13:33:20.143Z,49.80
2019-05-22T13:35:49.157Z,50.19
2019-05-22T13:38:17.975Z,50.82
2019-05-22T13:40:48.277Z,50.36
2019-05-22T13:43:18.283Z,48.93
2019-05-22T13:45:47.416Z,47.90
2019-05-22T13:48:16.199Z,48.76
2019-05-22T13:50:45.959Z,46.94
2019-05-22T13:53:17.971Z,45.43
2019-05-22T13:55:47.050Z,47.51
2019-05-22T13:58:16.501Z,47.85
2019-05-22T14:00:45.117Z,47.95
2019-05-22T14:03:14.630Z,48.69
2019-05-22T14:05:43.251Z,51.14
2019-05-22T14:08:12.612Z,47.25
2019-05-22T14:10:41.255Z,46.70
2019-05-22T14:13:09.715Z,47.78
2019-05-22T14:15:52.096Z,49.01
2019-05-22T14:18:08.814Z,49.83
2019-05-22T14:20:38.637Z,50.51
2019-05-22T14:23:07.205Z,50.89
2019-05-22T14:25:36.058Z,50.24
2019-05-22T14:28:05.617Z,49.58
2019-05-22T14:30:34.168Z,47.28
2019-05-22T14:33:04.860Z,47.79
2019-05-22T14:35:47.456Z,44.48
2019-05-22T14:38:07.966Z,43.12
2019-05-22T14:40:38.476Z,43.14
2019-05-22T14:43:07.825Z,46.76
2019-05-22T14:45:37.172Z,47.32
2019-05-22T14:48:05.882Z,45.41
2019-05-22T14:50:34.448Z,47.41
2019-05-22T14:53:03.019Z,48.36
2019-05-22T14:55:33.641Z,47.91
2019-05-22T14:58:03.265Z,48.93
2019-05-22T15:00:33.574Z,49.88
2019-05-22T15:03:02.305Z,48.89
2019-05-22T15:05:32.097Z,47.58
2019-05-22T15:08:00.873Z,47.75
2019-05-22T15:10:47.471Z,47.57
2019-05-22T15:13:16.428Z,46.85
2019-05-22T15:15:45.081Z,49.40
2019-05-22T15:18:13.606Z,50.15
2019-05-22T15:20:56.773Z,49.56
2019-05-22T15:23:26.967Z,50.19
2019-05-22T15:25:55.464Z,51.96
2019-05-22T15:28:26.862Z,49.66
2019-05-22T15:30:54.969Z,50.21
2019-05-22T15:33:24.346Z,47.01
2019-05-22T15:35:54.655Z,47.08
2019-05-22T15:38:23.892Z,48.40
2019-05-22T15:40:54.145Z,48.76
2019-05-22T15:43:24.501Z,48.26
2019-05-22T15:45:54.288Z,46.02
2019-05-22T15:48:30.323Z,47.18
2019-05-22T15:51:02.575Z,44.93
2019-05-22T15:53:33.366Z,47.46
2019-05-22T15:56:04.998Z,46.63
2019-05-22T15:58:35.244Z,47.15
2019-05-22T16:01:08.219Z,47.05
2019-05-22T16:03:37.297Z,46.52
2019-05-22T16:06:07.510Z,46.25
2019-05-22T16:08:36.496Z,46.26
2019-05-22T16:11:09.014Z,48.57
2019-05-22T16:13:39.439Z,46.64
2019-05-22T16:16:09.632Z,46.84
2019-05-22T16:18:38.752Z,45.68
2019-05-22T16:21:10.782Z,47.30
2019-05-22T16:23:40.286Z,48.30
2019-05-22T16:26:11.675Z,46.58
2019-05-22T16:28:42.325Z,46.56
2019-05-22T16:31:12.444Z,46.67
2019-05-22T16:33:41.771Z,46.68
2019-05-22T16:36:11.062Z,46.75
2019-05-22T16:38:41.683Z,48.46
2019-05-22T16:41:11.137Z,47.69
2019-05-22T16:43:48.746Z,48.04
2019-05-22T16:46:16.476Z,49.20
2019-05-22T16:48:47.672Z,47.75
2019-05-22T16:51:18.523Z,49.06
2019-05-22T16:53:58.870Z,47.39
2019-05-22T16:56:27.825Z,47.86
2019-05-22T16:58:57.784Z,48.22
2019-05-22T17:01:28.280Z,47.38
2019-05-22T17:04:00.127Z,48.31
2019-05-22T17:06:29.202Z,49.19
2019-05-22T17:08:59.254Z,48.53
2019-05-22T17:11:28.398Z,48.46
2019-05-22T17:13:59.679Z,47.02
2019-05-22T17:16:29.588Z,48.63
2019-05-22T17:18:58.803Z,48.33
2019-05-22T17:21:27.999Z,48.02
2019-05-22T17:23:59.224Z,48.43
2019-05-22T17:26:28.775Z,47.67
2019-05-22T17:28:57.354Z,48.25
2019-05-22T17:31:27.608Z,47.81
2019-05-22T17:33:56.269Z,48.56
2019-05-22T17:36:25.604Z,49.13
2019-05-22T17:38:56.516Z,48.71
2019-05-22T17:41:27.762Z,49.96
2019-05-22T17:43:57.195Z,51.99
2019-05-22T17:46:27.272Z,53.32
2019-05-22T17:48:56.789Z,53.14
2019-05-22T17:51:26.874Z,53.78
2019-05-22T17:53:55.432Z,54.13
2019-05-22T17:56:25.224Z,54.38
2019-05-22T17:58:53.645Z,55.79
2019-05-22T18:01:23.821Z,55.80
2019-05-22T18:03:53.539Z,56.60
2019-05-22T18:06:21.983Z,56.51
2019-05-22T18:08:50.871Z,55.79
2019-05-22T18:11:19.857Z,56.74
2019-05-22T18:14:03.815Z,57.28
2019-05-22T18:16:33.990Z,57.37
2019-05-22T18:19:04.669Z,58.36
2019-05-22T18:21:34.226Z,58.67
2019-05-22T18:24:04.166Z,58.43
2019-05-22T18:26:34.617Z,58.09
2019-05-22T18:29:03.536Z,58.11
2019-05-22T18:31:31.951Z,59.15
2019-05-22T18:34:00.479Z,59.58
2019-05-22T18:36:29.034Z,59.81
2019-05-22T18:38:57.504Z,59.92
2019-05-22T18:41:26.551Z,60.54
2019-05-22T18:43:56.888Z,60.94
2019-05-22T18:46:25.292Z,61.02
2019-05-22T18:48:53.769Z,61.62
2019-05-22T18:51:23.192Z,62.10
2019-05-22T18:53:54.764Z,62.14
2019-05-22T18:56:23.391Z,63.17
2019-05-22T18:58:52.410Z,63.09
2019-05-22T19:01:21.756Z,63.13
2019-05-22T19:03:51.899Z,63.97
2019-05-22T19:06:29.792Z,64.30
2019-05-22T19:08:50.980Z,65.04
2019-05-22T19:11:19.488Z,65.45
2019-05-22T19:13:49.472Z,65.55
2019-05-22T19:16:17.984Z,65.82
2019-05-22T19:18:46.836Z,66.42
2019-05-22T19:21:15.417Z,66.27
2019-05-22T19:23:43.873Z,67.44
2019-05-22T19:26:12.340Z,67.73
2019-05-22T19:28:44.079Z,67.49
2019-05-22T19:31:10.953Z,67.92
2019-05-22T19:33:39.506Z,68.12
2019-05-22T19:36:09.125Z,67.87
2019-05-22T19:38:39.097Z,68.25
2019-05-22T19:41:07.484Z,69.16
2019-05-22T19:43:35.960Z,69.86
2019-05-22T19:46:04.878Z,70.75
2019-05-22T19:48:34.341Z,70.04
2019-05-22T19:51:04.106Z,70.06
2019-05-22T19:53:32.943Z,70.54
2019-05-22T19:56:01.436Z,70.53
2019-05-22T19:58:31.758Z,70.94
2019-05-22T20:01:00.399Z,71.24
2019-05-22T20:03:30.136Z,71.14
2019-05-22T20:05:59.151Z,71.32
2019-05-22T20:08:27.693Z,71.75
2019-05-22T20:10:56.466Z,71.86
2019-05-22T20:13:25.294Z,72.08
2019-05-22T20:15:54.959Z,72.37
2019-05-22T20:18:28.247Z,72.50
2019-05-22T20:20:56.776Z,72.89
2019-05-22T20:23:35.127Z,73.64
2019-05-22T20:25:56.009Z,73.85
2019-05-22T20:28:26.061Z,73.93
2019-05-22T20:30:54.955Z,74.50
2019-05-22T20:33:26.969Z,74.94
2019-05-22T20:35:55.883Z,75.04
2019-05-22T20:38:25.439Z,75.40
2019-05-22T20:40:54.101Z,75.90
2019-05-22T20:43:22.738Z,76.38
2019-05-22T20:45:53.911Z,77.32
2019-05-22T20:48:28.800Z,77.16
2019-05-22T20:50:59.920Z,77.34
2019-05-22T20:53:30.212Z,77.67
2019-05-22T20:56:00.051Z,78.06
2019-05-22T20:58:30.415Z,78.47
2019-05-22T21:01:00.936Z,78.84
2019-05-22T21:03:31.969Z,79.00
2019-05-22T21:06:04.936Z,79.87
2019-05-22T21:08:36.090Z,79.04
2019-05-22T21:11:04.772Z,79.29
2019-05-22T21:13:34.648Z,79.33
2019-05-22T21:16:05.267Z,79.92
2019-05-22T21:18:35.469Z,80.29
2019-05-22T21:21:05.273Z,80.25
2019-05-22T21:23:35.975Z,80.39
2019-05-22T21:26:05.470Z,80.87
2019-05-22T21:28:33.921Z,81.26
2019-05-22T21:31:04.073Z,81.20
2019-05-22T21:33:32.584Z,81.04
2019-05-22T21:36:01.777Z,81.17
2019-05-22T21:38:30.451Z,81.58
2019-05-22T21:40:59.458Z,82.06
2019-05-22T21:43:28.630Z,82.53
2019-05-22T21:45:57.606Z,81.85
2019-05-22T21:48:28.961Z,81.51
2019-05-22T21:50:57.541Z,81.56
2019-05-22T21:53:26.103Z,81.93
2019-05-22T21:56:04.002Z,82.71
2019-05-22T21:58:26.992Z,82.17
2019-05-22T22:00:57.972Z,81.95
2019-05-22T22:03:38.609Z,82.21
2019-05-22T22:06:07.689Z,82.25
2019-05-22T22:08:36.587Z,82.17
2019-05-22T22:11:05.641Z,82.64
2019-05-22T22:13:34.891Z,82.92
2019-05-22T22:16:04.055Z,82.63
2019-05-22T22:18:33.120Z,82.69
2019-05-22T22:21:02.432Z,83.08
2019-05-22T22:23:30.824Z,82.88
2019-05-22T22:26:00.710Z,82.78
2019-05-22T22:28:30.002Z,83.07
2019-05-22T22:31:00.576Z,83.49
2019-05-22T22:33:32.434Z,83.49
2019-05-22T22:36:03.285Z,84.41
2019-05-22T22:38:33.324Z,85.07
2019-05-22T22:41:02.426Z,84.72
2019-05-22T22:43:33.272Z,84.12
2019-05-22T22:46:05.324Z,83.62
2019-05-22T22:48:37.490Z,83.58
2019-05-22T22:51:09.724Z,83.77
2019-05-22T22:53:38.975Z,84.37
2019-05-22T22:56:10.137Z,84.36
2019-05-22T22:58:39.975Z,83.98
2019-05-22T23:01:13.031Z,83.87
2019-05-22T23:03:45.392Z,83.93
2019-05-22T23:06:15.849Z,83.72
2019-05-22T23:08:45.280Z,83.87
2019-05-22T23:11:15.699Z,84.22
2019-05-22T23:13:46.245Z,84.29
2019-05-22T23:16:18.178Z,84.42
2019-05-22T23:18:58.596Z,84.63
2019-05-22T23:21:25.851Z,84.81
2019-05-22T23:23:53.888Z,85.02
2019-05-22T23:26:23.795Z,85.22
2019-05-22T23:28:54.985Z,85.15
2019-05-22T23:31:24.218Z,85.26
2019-05-22T23:33:53.675Z,85.34
2019-05-22T23:36:22.914Z,85.33
2019-05-22T23:38:52.415Z,85.54
2019-05-22T23:41:23.857Z,85.37
2019-05-22T23:43:52.841Z,85.38
2019-05-22T23:46:24.504Z,85.47
2019-05-22T23:48:53.380Z,85.40
2019-05-22T23:51:22.975Z,85.20
2019-05-22T23:53:53.098Z,85.15
2019-05-22T23:56:22.494Z,85.21
2019-05-22T23:58:53.135Z,85.47
